Latest Weather Observations for Lombadina

IDW60801

Issued at 5:33 pm WST Sunday 31 July 2016 (issued every 30 minutes, with the page automatically refreshed every 10 minutes)

About weather observations | Map of weather stations | Latest weather observations for WA | Other Formats
Station Details ID: 503016 Name: LOMBADINA AIRSTRIP Lat: -16.52 Lon: 122.92 Height: 42.0 m
Data from the previous 72 hours. | See also: Recent months for locations in Western Australia
Date/Time
WST
Temp
°C
App
Temp
°C
Dew
Point
°C
Rel
Hum
%
Delta-T
°C
Wind Press
QNH
hPa
Press
MSL
hPa
Rain since
9am
mm
Dir  Spd
km/h
Gust
km/h
Spd
kts
Gust
kts
31/05:30pm 24.4 25.6 16.9 63 4.6 NW 6 11 3 6 1012.7 1012.5 0.0
31/05:00pm 25.5 26.4 16.6 58 5.5 NW 7 11 4 6 1012.4 1012.2 0.0
31/04:30pm 26.4 26.7 16.1 53 6.3 NW 9 15 5 8 1012.1 1011.9 0.0
31/04:00pm 27.0 26.8 15.7 50 6.9 NW 11 17 6 9 1012.1 1011.9 0.0
31/03:30pm 26.9 27.0 16.5 53 6.4 WNW 11 19 6 10 1012.2 1012.0 0.0
31/03:00pm 26.9 26.6 16.5 53 6.4 NW 13 19 7 10 1012.1 1011.9 0.0
31/02:30pm 26.8 26.4 16.1 52 6.6 WNW 13 22 7 12 1012.3 1012.1 0.0
31/02:00pm 27.4 26.7 14.4 45 7.8 NW 11 17 6 9 1012.5 1012.3 0.0
31/01:30pm 27.4 27.2 15.7 48 7.2 NW 11 17 6 9 1012.7 1012.5 0.0
31/01:00pm 27.7 27.2 15.0 45 7.7 NW 11 17 6 9 1013.0 1012.8 0.0
31/12:30pm 27.6 26.9 13.2 41 8.5 N 9 19 5 10 1013.4 1013.2 0.0
31/12:00pm 28.4 27.4 12.3 37 9.4 E 9 19 5 10 1014.0 1013.8 0.0
31/11:30am 27.3 26.6 13.3 42 8.3 E 9 17 5 9 1014.3 1014.1 0.0
31/11:00am 26.7 25.4 11.2 38 8.8 E 9 17 5 9 1014.9 1014.7 0.0
31/10:30am 27.0 24.9 8.4 31 10.1 ESE 9 17 5 9 1015.2 1015.0 0.0
31/10:00am 25.6 23.4 9.4 36 8.9 ESE 11 20 6 11 1015.5 1015.3 0.0
31/09:30am 24.9 23.1 10.8 41 7.9 SE 11 19 6 10 1015.7 1015.5 0.0
31/09:00am 24.2 21.8 11.5 45 7.2 ESE 15 22 8 12 1015.8 1015.6 -
31/08:30am 23.3 23.3 15.1 60 4.9 SE 9 20 5 11 1015.3 1015.1 -
31/08:00am 22.4 22.8 15.3 64 4.2 SE 7 17 4 9 1015.1 1014.9 -
31/07:30am 20.6 22.4 17.4 82 2.0 SSE 4 9 2 5 1015.0 1014.8 -
31/07:00am 18.1 19.7 17.8 98 0.2 S 6 11 3 6 1014.5 1014.3 -
31/06:30am 17.5 18.9 17.3 99 0.1 S 6 7 3 4 1014.4 1014.2 -
31/06:00am 18.3 20.1 18.3 100 0.0 S 6 11 3 6 1014.1 1013.9 -
31/05:30am 18.2 20.0 18.2 100 0.0 SSW 6 9 3 5 1013.8 1013.6 -
31/05:15am 18.1 20.2 18.1 100 0.0 S 4 9 2 5 1013.8 1013.6 -
31/05:00am 18.1 19.8 18.1 100 0.0 S 6 9 3 5 1013.7 1013.5 -
31/04:30am 17.7 19.5 17.5 99 0.1 SSW 4 7 2 4 1013.6 1013.4 -
31/04:09am 18.1 20.1 17.8 98 0.2 S 4 7 2 4 1013.6 1013.4 -
31/04:00am 18.4 20.5 18.2 99 0.1 SSW 4 7 2 4 1013.6 1013.4 -
31/03:30am 18.7 20.9 18.4 98 0.2 SSW 4 7 2 4 1013.5 1013.3 -
31/03:00am 19.1 21.5 18.9 99 0.1 SSW 4 7 2 4 1013.5 1013.3 0.0
31/02:30am 18.9 20.8 18.6 98 0.2 SSW 6 9 3 5 1013.6 1013.4 -
31/02:00am 19.1 21.4 18.6 97 0.3 SSW 4 7 2 4 1013.7 1013.5 -
31/01:30am 19.4 21.5 18.9 97 0.3 SSW 6 9 3 5 1014.0 1013.8 -
31/01:00am 19.2 21.1 18.5 96 0.4 SSW 6 9 3 5 1014.1 1013.9 -
31/12:30am 19.5 21.5 18.8 96 0.4 SSW 6 11 3 6 1014.1 1013.9 -
31/12:00am 19.9 22.1 19.6 98 0.2 SSW 7 13 4 7 1014.3 1014.1 -
 
Date/Time
WST
Temp
°C
App
Temp
°C
Dew
Point
°C
Rel
Hum
%
Delta-T
°C
Wind Press
QNH
hPa
Press
MSL
hPa
Rain since
9am
mm
Dir  Spd
km/h
Gust
km/h
Spd
kts
Gust
kts
30/11:30pm 19.7 22.0 19.5 99 0.1 SW 6 13 3 7 1014.5 1014.3 -
30/11:00pm 19.8 22.3 19.1 96 0.4 WNW 4 6 2 3 1014.3 1014.1 -
30/10:30pm 19.7 22.1 18.7 94 0.6 WNW 4 6 2 3 1014.3 1014.1 -
30/10:00pm 20.0 22.3 18.5 91 0.9 NW 4 6 2 3 1014.4 1014.2 -
30/09:30pm 19.7 22.7 18.4 92 0.8 CALM 0 4 0 2 1014.3 1014.1 -
30/09:00pm 19.8 21.9 17.2 85 1.6 WNW 2 6 1 3 1014.4 1014.2 -
30/08:30pm 21.6 23.0 17.4 77 2.6 NNW 6 7 3 4 1014.4 1014.2 -
30/08:00pm 22.5 23.8 17.6 74 3.0 NNW 7 11 4 6 1014.3 1014.1 -
30/07:30pm 22.4 23.1 15.7 66 4.0 NNW 6 7 3 4 1014.2 1014.0 -
30/07:00pm 23.4 24.3 16.0 63 4.5 NNW 6 9 3 5 1014.0 1013.8 -
30/06:30pm 23.9 - 15.7 60 5.0 - - - - - 1013.6 1013.4 -
30/06:00pm 25.0 25.9 15.0 53 6.0 N 4 6 2 3 1013.3 1013.1 0.0
30/05:30pm 26.2 26.1 15.0 50 6.8 N 9 13 5 7 1013.1 1012.9 0.0
30/05:00pm 27.3 26.9 14.0 44 7.9 N 9 15 5 8 1012.9 1012.7 0.0
30/04:30pm 27.6 26.8 13.9 43 8.2 N 11 22 6 12 1012.6 1012.4 0.0
30/04:00pm 28.5 27.3 12.8 38 9.2 NE 11 19 6 10 1012.3 1012.1 0.0
30/03:30pm 29.0 26.2 8.7 28 11.2 ENE 13 20 7 11 1012.1 1011.9 0.0
30/03:00pm 28.9 26.8 11.0 33 10.3 NE 13 22 7 12 1012.1 1011.9 0.0
30/02:30pm 28.4 26.7 13.5 40 8.9 E 15 26 8 14 1012.2 1012.0 0.0
30/02:00pm 28.4 26.9 14.3 42 8.5 E 15 24 8 13 1012.5 1012.3 0.0
30/01:30pm 27.9 26.0 13.1 40 8.7 ENE 15 24 8 13 1012.7 1012.5 0.0
30/01:00pm 28.2 26.1 12.5 37 9.2 E 15 26 8 14 1013.1 1012.9 0.0
30/12:30pm 27.6 25.6 12.8 40 8.7 ESE 15 28 8 15 1013.6 1013.4 0.0
30/12:00pm 27.2 25.2 12.8 41 8.4 ESE 15 26 8 14 1014.0 1013.8 0.0
30/11:30am 26.6 24.3 11.9 40 8.4 E 15 24 8 13 1014.6 1014.4 0.0
30/11:00am 26.2 23.7 12.3 42 8.0 ESE 17 30 9 16 1014.8 1014.6 0.0
30/10:30am 25.9 22.7 11.3 40 8.3 ESE 19 33 10 18 1015.2 1015.0 0.0
30/10:00am 25.7 22.4 11.5 41 8.1 ESE 20 35 11 19 1015.4 1015.2 0.0
30/09:30am 25.1 22.7 13.9 49 6.6 ESE 19 33 10 18 1015.5 1015.3 0.0
30/09:00am 23.8 21.2 13.9 54 5.8 ESE 20 35 11 19 1015.5 1015.3 0.0
30/08:30am 23.6 21.2 12.6 50 6.3 SE 17 30 9 16 1015.4 1015.2 0.0
30/08:00am 22.2 19.7 9.7 45 6.8 SE 13 22 7 12 1015.3 1015.1 0.0
30/07:30am 20.9 17.6 6.4 39 7.3 SE 13 22 7 12 1015.0 1014.8 0.0
30/07:00am 20.0 16.2 4.1 35 7.6 SE 13 22 7 12 1014.9 1014.7 0.0
30/06:30am 19.4 16.1 2.7 33 7.8 SE 9 17 5 9 1014.6 1014.4 0.0
30/06:00am 19.7 16.4 2.6 32 7.9 SSE 9 15 5 8 1014.3 1014.1 0.0
30/05:30am 20.1 16.9 2.9 32 8.1 SSE 9 19 5 10 1014.0 1013.8 0.0
30/05:00am 19.3 16.8 5.0 39 6.9 S 7 13 4 7 1013.9 1013.7 0.0
30/04:30am 20.0 17.4 6.0 40 7.0 S 9 15 5 8 1013.9 1013.7 0.0
30/04:00am 19.8 17.9 7.5 45 6.3 S 7 13 4 7 1013.7 1013.5 0.0
30/03:30am 19.7 18.4 9.3 51 5.5 S 6 13 3 7 1013.9 1013.7 0.0
30/03:00am 20.0 19.1 11.5 58 4.7 SSW 7 13 4 7 1014.0 1013.8 0.0
30/02:30am 19.9 19.6 13.4 66 3.7 SSW 7 11 4 6 1014.2 1014.0 0.0
30/02:00am 19.3 19.4 13.9 71 3.1 S 6 9 3 5 1014.4 1014.2 0.0
30/01:30am 18.0 18.1 13.9 77 2.3 SSW 6 9 3 5 1014.7 1014.5 0.0
30/01:00am 19.4 19.6 14.2 72 3.0 S 6 7 3 4 1014.9 1014.7 0.0
30/12:30am 19.3 19.3 13.7 70 3.2 SSW 6 11 3 6 1015.2 1015.0 0.0
30/12:00am 19.6 19.6 14.2 71 3.1 SSW 7 11 4 6 1015.4 1015.2 0.0
 
Date/Time
WST
Temp
°C
App
Temp
°C
Dew
Point
°C
Rel
Hum
%
Delta-T
°C
Wind Press
QNH
hPa
Press
MSL
hPa
Rain since
9am
mm
Dir  Spd
km/h
Gust
km/h
Spd
kts
Gust
kts
29/11:30pm 18.9 19.3 14.8 77 2.4 SSW 6 9 3 5 1015.5 1015.3 0.0
29/11:00pm 19.4 19.7 14.4 73 2.9 SSW 6 7 3 4 1015.6 1015.4 0.0
29/10:30pm 19.2 19.2 14.2 73 2.9 SSW 7 11 4 6 1015.8 1015.6 0.0
29/10:00pm 19.1 20.8 15.2 78 2.3 CALM 0 0 0 0 1015.5 1015.3 0.0
29/09:30pm 20.1 21.0 14.0 68 3.5 NNW 2 4 1 2 1015.5 1015.3 0.0
29/09:00pm 20.1 20.3 11.8 59 4.6 NNW 2 4 1 2 1015.5 1015.3 0.0
29/08:30pm 21.9 21.5 12.5 55 5.3 N 6 7 3 4 1015.5 1015.3 0.0
29/08:00pm 21.3 20.1 8.2 43 6.9 N 4 6 2 3 1015.3 1015.1 0.0
29/07:30pm 23.2 21.4 7.3 36 8.3 N 6 9 3 5 1015.0 1014.8 0.0
29/07:00pm 22.9 21.1 7.1 36 8.2 N 6 9 3 5 1014.8 1014.6 0.0
29/06:30pm 22.5 20.5 6.3 35 8.3 NNE 6 7 3 4 1014.3 1014.1 0.0
29/06:00pm 23.4 21.3 5.8 32 8.9 NNE 6 7 3 4 1014.0 1013.8 0.0
29/05:30pm 26.1 24.6 5.1 26 10.7 NE 2 4 1 2 1013.7 1013.5 0.0
29/05:00pm 27.3 24.9 4.4 23 11.6 ENE 6 7 3 4 1013.6 1013.4 0.0
29/04:30pm 27.6 25.1 4.6 23 11.7 ENE 7 11 4 6 1013.5 1013.3 0.0
29/04:00pm 27.9 25.3 4.2 22 12.0 E 7 13 4 7 1013.5 1013.3 0.0
29/03:30pm 28.2 25.7 4.5 22 12.1 E 7 15 4 8 1013.4 1013.2 0.0
29/03:00pm 27.9 24.9 4.2 22 12.0 ENE 9 20 5 11 1013.3 1013.1 0.0
29/02:30pm 28.3 25.0 4.6 22 12.1 ENE 11 20 6 11 1013.3 1013.1 0.0
29/02:00pm 28.5 25.4 5.4 23 12.0 E 11 19 6 10 1013.5 1013.3 0.0
29/01:30pm 28.0 25.3 5.6 24 11.7 ESE 9 19 5 10 1013.8 1013.6 0.0
29/01:00pm 28.3 24.9 5.8 24 11.8 ESE 13 22 7 12 1014.1 1013.9 0.0
29/12:30pm 27.5 24.1 5.7 25 11.3 ESE 13 22 7 12 1014.7 1014.5 0.0
29/12:00pm 27.0 23.8 6.9 28 10.6 ESE 13 24 7 13 1015.0 1014.8 0.0
29/11:30am 26.8 23.3 7.3 29 10.4 ESE 15 26 8 14 1015.5 1015.3 0.0
29/11:00am 27.1 23.7 9.0 32 9.9 ESE 17 26 9 14 1015.8 1015.6 0.0
29/10:30am 25.9 22.6 9.7 36 8.9 ESE 17 30 9 16 1016.1 1015.9 0.0
29/10:00am 26.4 23.1 9.7 35 9.2 ESE 17 28 9 15 1016.3 1016.1 0.0
29/09:30am 25.4 22.4 10.8 40 8.2 ESE 17 28 9 15 1016.5 1016.3 0.0
29/09:00am 25.5 23.5 12.7 45 7.4 ESE 15 30 8 16 1016.7 1016.5 0.0
29/08:30am 24.7 23.2 13.0 48 6.8 SE 13 24 7 13 1016.7 1016.5 0.0
29/08:00am 23.1 22.3 13.0 53 5.8 SSE 9 17 5 9 1016.4 1016.2 0.0
29/07:30am 21.4 20.1 11.4 53 5.6 SE 9 19 5 10 1016.3 1016.1 0.0
29/07:00am 19.8 18.1 10.0 53 5.3 SE 9 17 5 9 1016.2 1016.0 0.0
29/06:30am 19.1 17.3 9.6 54 5.0 SE 9 17 5 9 1015.9 1015.7 0.0
29/06:00am 19.5 17.2 9.1 51 5.5 SE 11 22 6 12 1015.8 1015.6 0.0
29/05:30am 19.8 17.5 9.1 50 5.6 SE 11 19 6 10 1015.5 1015.3 0.0
29/05:00am 20.1 18.3 9.4 50 5.7 SE 9 17 5 9 1015.2 1015.0 0.0
29/04:30am 19.5 17.5 8.8 50 5.6 SE 9 17 5 9 1014.9 1014.7 0.0
29/04:00am 19.7 17.4 7.4 45 6.3 SE 9 15 5 8 1014.8 1014.6 0.0
29/03:30am 19.9 17.1 5.2 38 7.2 SE 9 15 5 8 1014.8 1014.6 0.0
29/03:00am 20.5 17.0 3.7 33 8.0 SE 11 15 6 8 1014.9 1014.7 0.0
29/02:30am 20.6 17.5 3.8 33 8.1 SSE 9 17 5 9 1015.0 1014.8 0.0
29/02:00am 21.5 18.7 5.0 34 8.1 SSE 9 19 5 10 1015.1 1014.9 0.0
29/01:30am 18.3 17.3 10.2 59 4.3 SSE 6 9 3 5 1015.4 1015.2 0.0
29/01:00am 18.2 17.5 11.5 65 3.7 S 6 7 3 4 1015.6 1015.4 0.0
29/12:30am 18.1 17.7 12.3 69 3.2 SSW 6 7 3 4 1015.7 1015.5 0.0
29/12:00am 17.9 18.3 13.8 77 2.3 S 4 7 2 4 1015.8 1015.6 0.0
 
Date/Time
WST
Temp
°C
App
Temp
°C
Dew
Point
°C
Rel
Hum
%
Delta-T
°C
Wind Press
QNH
hPa
Press
MSL
hPa
Rain since
9am
mm
Dir  Spd
km/h
Gust
km/h
Spd
kts
Gust
kts
28/11:30pm 18.3 18.6 14.6 79 2.1 S 6 7 3 4 1015.9 1015.7 0.0
28/11:00pm 19.7 20.6 16.2 80 2.1 SSW 6 7 3 4 1016.1 1015.9 0.0
28/10:30pm 20.1 21.2 16.7 81 2.1 SSW 6 9 3 5 1016.3 1016.1 0.0
28/10:00pm 20.2 21.7 17.6 85 1.6 SSW 6 7 3 4 1016.5 1016.3 0.0
28/09:30pm 20.8 22.2 17.4 81 2.1 SSW 6 11 3 6 1016.4 1016.2 0.0
28/09:00pm 19.5 19.7 14.1 71 3.1 SSW 6 11 3 6 1016.3 1016.1 0.0
28/08:30pm 18.6 17.3 7.7 49 5.6 WSW 4 7 2 4 1016.3 1016.1 0.0
28/08:00pm 20.8 19.7 8.4 45 6.5 NNW 4 6 2 3 1016.0 1015.8 0.0
28/07:30pm 19.9 18.4 5.2 38 7.2 NW 2 4 1 2 1015.8 1015.6 0.0
28/07:00pm 21.6 20.3 4.2 32 8.5 CALM 0 4 0 2 1015.5 1015.3 0.0
28/06:30pm 22.5 21.0 5.0 32 8.7 N 2 6 1 3 1015.1 1014.9 0.0
28/06:00pm 23.8 22.1 4.2 28 9.7 N 2 7 1 4 1014.8 1014.6 0.0

Other Formats:

Comma delimited format used in spreadsheet applications
http://www.bom.gov.au/fwo/IDW60801/IDW60801.99206.axf

JavaScript Object Notation format (JSON) in row-major order
http://www.bom.gov.au/fwo/IDW60801/IDW60801.99206.json